Overview Statistics Trail Chart Weather Telemetry Raw packets
 

This is the latest recevied weather packets stored in our database for station/object DN9CHO-13. If no packets are shown the sender has not sent any weather packets the latest 10 day(s).

<< 1 2 3 4 5 6 7 >>
Time Temp. Humidity Pressure Rain* Wind** Luminosity Snow
1788544520 16.11° C 97% 1016.7 hPa 5.84 mm - 0 W/m² -
1788543917 16.11° C 97% 1016.4 hPa 6.1 mm - 1 W/m² -
1788543333 16.11° C 97% 1016.5 hPa 6.6 mm - 2 W/m² -
1788542729 16.11° C 96% 1016.6 hPa 6.86 mm - 2 W/m² -
1788542126 16.67° C 96% 1016.5 hPa 5.08 mm - 1 W/m² -
1788541522 16.67° C 95% 1016.5 hPa 3.3 mm - 1 W/m² -
1788540918 17.22° C 95% 1016.4 hPa 1.02 mm - 1 W/m² -
1788540335 17.78° C 94% 1016.2 hPa 0.76 mm - 2 W/m² -
1788539731 18.33° C 92% 1016.1 hPa 0.25 mm - 2 W/m² -
1788539128 18.89° C 91% 1016 hPa 0 mm - 2 W/m² -
1788538524 20° C 88% 1015.6 hPa 0 mm - 5 W/m² -
1788537920 23.33° C 77% 1015.2 hPa 0 mm - 5 W/m² -
1788537316 24.44° C 69% 1014.6 hPa 0 mm - 6 W/m² -
1788536746 25° C 68% 1014.6 hPa 0 mm - 11 W/m² -
1788536129 25° C 67% 1014.4 hPa 0 mm - 15 W/m² -
1788535525 25° C 66% 1014.4 hPa 0 mm - 13 W/m² -
1788534922 25.56° C 67% 1014.3 hPa 0 mm - 14 W/m² -
1788534318 25.56° C 67% 1014.3 hPa 0 mm - 11 W/m² -
1788533752 25.56° C 67% 1014.4 hPa 0 mm - 10 W/m² -
1788533131 25.56° C 66% 1014.4 hPa 0 mm - 14 W/m² -
1788532527 25.56° C 66% 1014.4 hPa 0 mm - 19 W/m² -
1788531924 25.56° C 67% 1014.6 hPa 0 mm - 19 W/m² -
1788531320 25.56° C 65% 1014.5 hPa 0 mm - 21 W/m² -
1788530717 25.56° C 65% 1014.5 hPa 0 mm - 17 W/m² -
1788530133 25° C 67% 1014.7 hPa 0 mm - 27 W/m² -

* Rain latest hour (hover to see other rain measurements)
** Current wind speed in m/s (hover to see current wind gust speed)